Time;durP1;ratioP1;P1;durP2;ratioP2;P2;SDS_P1;SDS_P2;PMS_P1;PMS_P2;Temp;Humidity;BMP_temperature;BMP_pressure;BME280_temperature;BME280_humidity;BME280_pressure;Samples;Min_cycle;Max_cycle;Signal;HPM_P1;HPM_P2
2021/05/24 00:01:31;;;;;;;1.88;0.00;;;12.60;99.90;;;;;;5060737;28;20023;-74
2021/05/24 00:03:57;;;;;;;2.53;0.20;;;12.60;99.90;;;;;;5055266;28;20052;-74
2021/05/24 00:06:22;;;;;;;0.00;0.00;;;12.60;99.90;;;;;;5073534;28;20025;-74
2021/05/24 00:08:48;;;;;;;0.45;0.00;;;12.60;99.90;;;;;;5104062;22;20092;-75
2021/05/24 00:11:16;;;;;;;1.63;0.00;;;12.60;99.90;;;;;;5051865;28;20037;-74
2021/05/24 00:13:56;;;;;;;2.67;0.22;;;12.60;99.90;;;;;;5059635;23;20513;-74
2021/05/24 00:16:23;;;;;;;1.65;0.00;;;12.60;99.90;;;;;;5073262;28;20096;-72
2021/05/24 00:18:51;;;;;;;4.20;0.20;;;12.60;99.90;;;;;;5060192;28;20119;-74
2021/05/24 00:21:18;;;;;;;1.30;0.00;;;12.70;99.90;;;;;;5075460;28;20081;-76
2021/05/24 00:23:45;;;;;;;0.52;0.00;;;12.60;99.90;;;;;;5093629;28;20028;-76
2021/05/24 00:26:11;;;;;;;0.00;0.00;;;12.70;99.90;;;;;;5072653;23;20041;-75
2021/05/24 00:28:37;;;;;;;1.77;0.10;;;12.70;99.90;;;;;;5058284;23;20130;-75
2021/05/24 00:31:03;;;;;;;1.30;0.20;;;12.70;99.90;;;;;;5093567;28;20170;-75
2021/05/24 00:33:29;;;;;;;1.02;0.00;;;12.70;99.90;;;;;;5075339;28;20602;-76
2021/05/24 00:35:55;;;;;;;0.20;0.00;;;12.70;99.90;;;;;;5093656;28;20036;-75
2021/05/24 00:38:20;;;;;;;0.85;0.00;;;12.70;99.90;;;;;;5060856;28;20501;-73
2021/05/24 00:40:46;;;;;;;1.10;0.35;;;12.70;99.90;;;;;;5055274;28;20115;-74
2021/05/24 00:43:12;;;;;;;0.10;0.00;;;12.70;99.90;;;;;;5086583;22;20051;-73
2021/05/24 00:45:39;;;;;;;3.08;0.00;;;15.30;99.90;;;;;;5072955;28;20484;-76
2021/05/24 00:48:05;;;;;;;1.15;0.00;;;12.80;99.90;;;;;;5084828;28;20016;-72
2021/05/24 00:50:31;;;;;;;1.65;0.00;;;12.80;99.90;;;;;;5075136;28;20042;-72
2021/05/24 00:52:57;;;;;;;0.90;0.00;;;12.70;99.90;;;;;;5075167;28;20062;-74
2021/05/24 00:55:23;;;;;;;4.47;0.85;;;12.70;99.90;;;;;;5092764;28;20377;-74
2021/05/24 00:57:49;;;;;;;0.55;0.00;;;12.80;99.90;;;;;;5065269;28;20453;-75
2021/05/24 01:00:36;;;;;;;0.38;0.10;;;12.80;99.90;;;;;;5072971;28;20024;-74
2021/05/24 01:03:04;;;;;;;1.95;0.00;;;12.90;99.90;;;;;;5073520;28;20032;-72
2021/05/24 01:05:29;;;;;;;0.50;0.00;;;12.80;99.90;;;;;;5073003;28;20540;-74
2021/05/24 01:07:55;;;;;;;0.52;0.05;;;12.90;99.90;;;;;;5083061;28;20025;-73
2021/05/24 01:10:21;;;;;;;1.38;0.00;;;12.80;99.90;;;;;;5071130;28;20485;-72
2021/05/24 01:12:47;;;;;;;2.72;0.00;;;12.80;99.90;;;;;;5054638;28;20021;-74
2021/05/24 01:15:13;;;;;;;0.45;0.00;;;12.80;99.90;;;;;;5038544;28;20021;-74
2021/05/24 01:17:38;;;;;;;1.30;0.10;;;12.80;99.90;;;;;;5072044;28;20024;-73
2021/05/24 01:20:05;;;;;;;1.15;0.00;;;12.90;99.90;;;;;;5097650;22;20056;-76
2021/05/24 01:22:33;;;;;;;0.70;0.00;;;12.90;99.90;;;;;;5056448;28;20029;-72
2021/05/24 01:24:59;;;;;;;0.47;0.00;;;12.90;99.90;;;;;;5067425;28;20389;-71
2021/05/24 01:27:25;;;;;;;0.10;0.00;;;12.80;99.90;;;;;;5095267;22;20052;-73
2021/05/24 01:29:50;;;;;;;1.10;0.10;;;14.70;99.90;;;;;;5094206;28;20032;-72
2021/05/24 01:32:16;;;;;;;0.63;0.00;;;12.80;99.90;;;;;;5076807;28;20100;-74
2021/05/24 01:34:42;;;;;;;1.85;0.00;;;12.80;99.90;;;;;;5075818;28;20537;-73
2021/05/24 01:37:08;;;;;;;2.60;0.00;;;12.90;99.90;;;;;;5092205;22;20088;-73
2021/05/24 01:39:34;;;;;;;1.80;0.25;;;12.90;99.90;;;;;;5059626;28;20121;-73
2021/05/24 01:41:59;;;;;;;1.00;0.00;;;12.90;99.90;;;;;;5076259;28;20029;-72
2021/05/24 01:44:39;;;;;;;0.95;0.00;;;12.80;99.90;;;;;;5069617;28;20025;-74
2021/05/24 01:47:06;;;;;;;3.05;0.00;;;12.90;99.90;;;;;;5056763;22;20562;-75
2021/05/24 01:49:33;;;;;;;0.05;0.00;;;12.90;99.90;;;;;;5076678;28;20036;-74
2021/05/24 01:51:58;;;;;;;1.30;0.00;;;12.90;99.90;;;;;;5057786;28;20396;-73
2021/05/24 01:54:25;;;;;;;0.00;0.00;;;12.90;99.90;;;;;;5069763;28;20029;-71
2021/05/24 01:56:50;;;;;;;0.65;0.00;;;12.90;99.90;;;;;;5055648;28;20100;-72
2021/05/24 01:59:16;;;;;;;0.45;0.13;;;12.90;99.90;;;;;;5037656;28;20590;-75
2021/05/24 02:01:42;;;;;;;2.08;0.00;;;12.90;99.90;;;;;;5055806;28;20033;-72
2021/05/24 02:04:08;;;;;;;1.80;0.00;;;12.90;99.90;;;;;;5037362;28;20481;-76
2021/05/24 02:06:34;;;;;;;3.60;0.00;;;13.00;99.90;;;;;;5055430;28;20035;-72
2021/05/24 02:08:59;;;;;;;1.13;0.15;;;13.00;99.90;;;;;;5081325;22;20044;-74
2021/05/24 02:11:26;;;;;;;0.38;0.00;;;13.00;99.90;;;;;;5057746;28;20027;-71
2021/05/24 02:13:51;;;;;;;2.50;0.00;;;13.00;99.90;;;;;;5073989;28;20431;-71
2021/05/24 02:16:18;;;;;;;3.15;0.00;;;12.90;99.90;;;;;;5055638;28;20025;-74
2021/05/24 02:18:44;;;;;;;0.20;0.03;;;13.00;99.90;;;;;;5055171;28;20032;-73
2021/05/24 02:21:10;;;;;;;0.22;0.00;;;13.00;99.90;;;;;;5055778;28;20029;-74
2021/05/24 02:23:35;;;;;;;1.05;0.00;;;13.00;99.90;;;;;;5055275;28;20017;-74
2021/05/24 02:26:01;;;;;;;0.45;0.30;;;13.00;99.90;;;;;;5054902;28;20025;-73
2021/05/24 02:28:27;;;;;;;1.00;0.00;;;13.00;99.90;;;;;;5037507;28;20040;-74
2021/05/24 02:30:53;;;;;;;0.93;0.00;;;13.00;99.90;;;;;;5037231;28;20029;-76
2021/05/24 02:33:19;;;;;;;2.35;0.20;;;13.00;99.90;;;;;;5055133;28;20025;-72
2021/05/24 02:35:44;;;;;;;0.30;0.00;;;13.10;99.90;;;;;;5054936;28;20027;-73
2021/05/24 02:38:11;;;;;;;1.23;0.05;;;13.00;99.90;;;;;;5069118;22;20075;-74
2021/05/24 02:40:40;;;;;;;3.35;0.17;;;13.10;99.90;;;;;;5077127;28;20485;-74
2021/05/24 02:45:33;;;;;;;4.43;0.00;;;13.10;99.90;;;;;;5053324;28;19927;-71
2021/05/24 02:48:00;;;;;;;1.30;0.00;;;13.10;99.90;;;;;;5055392;28;20374;-75
2021/05/24 02:50:26;;;;;;;1.00;0.00;;;13.10;99.90;;;;;;5054600;28;20562;-75
2021/05/24 02:52:53;;;;;;;0.57;0.00;;;13.10;99.90;;;;;;5047798;28;20391;-72
2021/05/24 02:55:19;;;;;;;0.20;0.00;;;13.10;99.90;;;;;;5075151;22;20043;-73
2021/05/24 02:57:44;;;;;;;0.22;0.00;;;13.10;99.90;;;;;;5056654;28;20063;-72
2021/05/24 03:00:11;;;;;;;2.17;0.00;;;13.10;99.90;;;;;;5074744;28;20032;-74
2021/05/24 03:02:44;;;;;;;1.90;0.05;;;13.20;99.90;;;;;;5056582;28;20021;-72
2021/05/24 03:05:13;;;;;;;0.38;0.00;;;13.10;99.90;;;;;;5074281;28;20088;-73
2021/05/24 03:07:38;;;;;;;0.43;0.00;;;13.10;99.90;;;;;;5088144;22;20044;-76
2021/05/24 03:10:04;;;;;;;1.52;0.00;;;13.10;99.90;;;;;;5074265;28;20157;-75
2021/05/24 03:12:30;;;;;;;0.00;0.00;;;13.10;99.90;;;;;;5074291;28;20023;-74
2021/05/24 03:14:55;;;;;;;3.30;0.00;;;13.10;99.90;;;;;;5045897;28;20017;-72
2021/05/24 03:17:21;;;;;;;0.93;0.00;;;13.00;99.90;;;;;;5036392;28;20021;-73
2021/05/24 03:19:46;;;;;;;0.08;0.00;;;13.00;99.90;;;;;;5054170;28;20028;-72
2021/05/24 03:22:12;;;;;;;0.43;0.03;;;12.90;99.90;;;;;;5036022;28;20036;-73
2021/05/24 03:24:38;;;;;;;2.50;0.00;;;12.90;99.90;;;;;;5069203;22;20039;-72
2021/05/24 03:27:04;;;;;;;2.60;0.10;;;12.90;99.90;;;;;;5073564;28;20105;-72
2021/05/24 03:29:30;;;;;;;2.28;0.00;;;12.80;99.90;;;;;;5055814;28;20071;-74
2021/05/24 03:31:55;;;;;;;0.10;0.00;;;12.80;99.90;;;;;;5073489;28;20028;-72
2021/05/24 03:34:21;;;;;;;4.18;0.40;;;12.70;99.90;;;;;;5073614;28;20103;-74
2021/05/24 03:36:47;;;;;;;0.30;0.00;;;12.70;99.90;;;;;;5071351;28;20019;-73
2021/05/24 03:39:12;;;;;;;0.05;0.00;;;12.90;99.90;;;;;;5055436;28;20078;-74
2021/05/24 03:41:38;;;;;;;2.42;0.10;;;12.70;99.90;;;;;;5041105;28;20048;-73
2021/05/24 03:44:04;;;;;;;0.98;0.00;;;12.60;99.90;;;;;;5053696;28;20013;-72
2021/05/24 03:46:29;;;;;;;2.30;0.00;;;12.60;99.90;;;;;;5060463;28;20067;-74
2021/05/24 03:48:55;;;;;;;0.55;0.00;;;12.60;99.90;;;;;;5071302;28;20469;-74
2021/05/24 03:51:21;;;;;;;0.63;0.00;;;12.60;99.90;;;;;;5072720;28;20029;-76
2021/05/24 03:53:46;;;;;;;0.25;0.00;;;12.40;99.90;;;;;;5051998;28;20100;-74
2021/05/24 03:56:13;;;;;;;1.48;0.00;;;12.40;99.90;;;;;;5061698;28;20072;-74
2021/05/24 03:58:39;;;;;;;1.45;0.10;;;12.20;99.90;;;;;;5125831;22;20037;-73
2021/05/24 04:01:04;;;;;;;0.43;0.00;;;12.10;99.90;;;;;;5073482;28;20047;-76
2021/05/24 04:03:30;;;;;;;1.65;0.00;;;12.00;99.90;;;;;;5055939;28;20079;-76
2021/05/24 04:06:00;;;;;;;0.00;0.00;;;11.90;99.90;;;;;;5074164;28;20028;-75
2021/05/24 04:08:32;;;;;;;0.00;0.00;;;11.80;99.90;;;;;;5074058;28;20029;-75
2021/05/24 04:10:59;;;;;;;2.00;0.00;;;11.70;99.90;;;;;;5055679;28;20059;-73
2021/05/24 04:13:25;;;;;;;1.30;0.00;;;11.60;99.90;;;;;;5055309;28;20021;-73
2021/05/24 04:15:51;;;;;;;0.05;0.00;;;11.40;99.90;;;;;;5073987;28;20051;-76
2021/05/24 04:18:18;;;;;;;4.05;0.32;;;11.40;99.90;;;;;;5055326;28;20507;-72
2021/05/24 04:20:46;;;;;;;2.15;0.00;;;11.30;99.90;;;;;;5073393;28;20021;-72
2021/05/24 04:23:12;;;;;;;0.45;0.00;;;11.30;99.90;;;;;;5073680;28;20032;-74
2021/05/24 04:25:38;;;;;;;0.03;0.00;;;11.30;99.90;;;;;;5073746;28;20040;-73
2021/05/24 04:28:04;;;;;;;1.77;0.05;;;11.20;99.90;;;;;;5073250;28;20024;-73
2021/05/24 04:30:29;;;;;;;0.10;0.00;;;11.20;99.90;;;;;;5073867;28;20020;-74
2021/05/24 04:32:55;;;;;;;6.13;0.43;;;11.20;99.90;;;;;;5072976;28;20075;-72
2021/05/24 04:35:20;;;;;;;0.00;0.00;;;11.20;99.90;;;;;;5055068;28;20107;-74
2021/05/24 04:37:46;;;;;;;0.63;0.00;;;11.10;99.90;;;;;;5073316;28;20056;-74
2021/05/24 04:40:12;;;;;;;1.52;0.15;;;11.10;99.90;;;;;;5055290;28;20461;-73
2021/05/24 04:42:41;;;;;;;1.10;0.10;;;11.10;99.90;;;;;;5072907;28;20481;-74
2021/05/24 04:45:08;;;;;;;0.17;0.00;;;11.10;99.90;;;;;;5072569;28;20484;-74
2021/05/24 04:47:33;;;;;;;1.45;0.00;;;11.10;99.90;;;;;;5085483;28;20083;-72
2021/05/24 04:49:59;;;;;;;1.27;0.00;;;11.10;99.90;;;;;;5066194;28;20120;-73
2021/05/24 04:52:25;;;;;;;0.00;0.00;;;11.10;99.90;;;;;;5059208;28;20094;-74
2021/05/24 04:54:51;;;;;;;3.70;0.00;;;11.00;99.90;;;;;;5076653;28;20013;-74
2021/05/24 04:57:17;;;;;;;1.55;0.00;;;11.10;99.90;;;;;;5085738;28;20027;-75
2021/05/24 04:59:42;;;;;;;0.38;0.00;;;11.00;99.90;;;;;;5093798;22;20492;-73
2021/05/24 05:02:08;;;;;;;0.75;0.20;;;11.10;99.90;;;;;;5071876;22;20152;-74
2021/05/24 05:07:02;;;;;;;0.10;0.00;;;11.10;99.90;;;;;;5085727;22;20032;-74
2021/05/24 05:09:27;;;;;;;2.17;0.00;;;11.10;99.90;;;;;;5038683;28;20036;-74
2021/05/24 05:11:54;;;;;;;1.35;0.00;;;11.10;99.90;;;;;;5056910;28;20025;-73
2021/05/24 05:14:23;;;;;;;0.00;0.00;;;11.20;99.90;;;;;;5056507;28;20021;-74
2021/05/24 05:16:49;;;;;;;0.15;0.00;;;11.20;99.90;;;;;;5038216;28;20020;-73
2021/05/24 05:19:16;;;;;;;1.45;0.00;;;11.30;99.90;;;;;;5056405;28;20474;-73
2021/05/24 05:21:42;;;;;;;0.55;0.00;;;11.20;99.90;;;;;;5038599;28;20017;-73
2021/05/24 05:24:09;;;;;;;0.85;0.00;;;11.20;99.90;;;;;;5056213;28;20029;-71
2021/05/24 05:26:34;;;;;;;0.65;0.00;;;11.30;99.90;;;;;;5037952;28;20025;-73
2021/05/24 05:29:00;;;;;;;0.13;0.00;;;11.30;99.90;;;;;;5056906;28;20087;-76
2021/05/24 05:31:26;;;;;;;0.10;0.00;;;11.30;99.90;;;;;;5038340;28;20029;-72
2021/05/24 05:33:51;;;;;;;1.02;0.00;;;11.30;99.90;;;;;;5056102;28;20021;-76
2021/05/24 05:36:17;;;;;;;1.60;0.00;;;11.30;99.90;;;;;;5055743;28;20025;-74
2021/05/24 05:38:43;;;;;;;0.30;0.00;;;11.00;99.90;;;;;;5056152;28;20500;-73
2021/05/24 05:41:08;;;;;;;1.67;0.00;;;11.40;99.90;;;;;;5056259;28;20021;-72
2021/05/24 05:43:34;;;;;;;0.35;0.00;;;11.40;99.90;;;;;;5055846;28;20079;-74
2021/05/24 05:46:00;;;;;;;1.02;0.13;;;11.40;99.90;;;;;;5100224;22;20114;-73
2021/05/24 05:48:27;;;;;;;0.98;0.00;;;11.40;99.90;;;;;;5075662;28;20363;-73
2021/05/24 05:50:53;;;;;;;0.00;0.00;;;11.40;99.90;;;;;;5075947;28;20032;-73
2021/05/24 05:53:19;;;;;;;1.50;0.00;;;11.50;99.90;;;;;;5057803;28;20461;-74
2021/05/24 05:55:44;;;;;;;1.27;0.20;;;11.50;99.90;;;;;;5060937;28;20468;-73
2021/05/24 05:58:10;;;;;;;0.10;0.00;;;11.50;99.90;;;;;;5037581;28;20021;-77
2021/05/24 06:00:35;;;;;;;0.75;0.00;;;11.50;99.90;;;;;;5055071;28;20017;-75
2021/05/24 06:03:01;;;;;;;0.00;0.00;;;11.50;99.90;;;;;;5055733;28;20036;-74
2021/05/24 06:05:26;;;;;;;1.45;0.00;;;11.50;99.90;;;;;;5056163;28;20454;-75
2021/05/24 06:07:52;;;;;;;0.00;0.00;;;11.50;99.90;;;;;;5055738;28;20056;-71
2021/05/24 06:10:18;;;;;;;1.13;0.00;;;11.40;99.90;;;;;;5055694;28;20014;-72
2021/05/24 06:12:46;;;;;;;1.13;0.00;;;11.40;99.90;;;;;;5055430;28;20090;-74
2021/05/24 06:15:15;;;;;;;0.40;0.00;;;11.50;99.90;;;;;;5057720;28;20381;-71
2021/05/24 06:17:41;;;;;;;2.53;0.00;;;11.50;99.90;;;;;;5055600;28;20131;-72
2021/05/24 06:20:07;;;;;;;0.63;0.00;;;11.50;99.90;;;;;;5055178;28;20037;-73
2021/05/24 06:22:33;;;;;;;0.63;0.00;;;11.70;99.90;;;;;;5054952;28;20025;-73
2021/05/24 06:24:58;;;;;;;0.63;0.10;;;11.70;99.90;;;;;;5037132;28;20032;-74
2021/05/24 06:27:24;;;;;;;0.43;0.00;;;11.80;99.90;;;;;;5071009;22;20019;-74
2021/05/24 06:29:50;;;;;;;0.28;0.20;;;11.80;99.90;;;;;;5075987;28;20448;-74
2021/05/24 06:32:15;;;;;;;0.20;0.00;;;11.80;99.90;;;;;;5065509;28;20035;-76
2021/05/24 06:34:41;;;;;;;2.45;0.00;;;11.80;99.90;;;;;;5095190;28;20028;-74
2021/05/24 06:37:06;;;;;;;1.38;0.00;;;11.80;99.90;;;;;;5095744;28;20013;-74
2021/05/24 06:39:32;;;;;;;1.80;0.08;;;11.90;99.90;;;;;;5079008;22;20071;-73
2021/05/24 06:41:57;;;;;;;0.65;0.00;;;11.90;99.90;;;;;;5037042;28;20025;-73
2021/05/24 06:44:23;;;;;;;0.80;0.00;;;12.00;99.90;;;;;;5059102;28;20084;-74
2021/05/24 06:46:49;;;;;;;0.30;0.10;;;12.00;99.90;;;;;;5074622;28;20025;-72
2021/05/24 06:49:15;;;;;;;2.45;0.00;;;12.10;99.90;;;;;;5074388;28;20508;-72
2021/05/24 06:51:41;;;;;;;0.00;0.00;;;12.10;99.90;;;;;;5074402;28;20020;-72
2021/05/24 06:54:06;;;;;;;0.52;0.00;;;12.10;99.90;;;;;;5056341;28;20031;-74
2021/05/24 06:56:32;;;;;;;0.30;0.00;;;12.10;99.90;;;;;;5074383;28;20020;-72
2021/05/24 06:58:57;;;;;;;3.30;0.13;;;12.10;99.90;;;;;;5056396;28;20119;-72
2021/05/24 07:01:23;;;;;;;1.55;0.00;;;12.10;99.90;;;;;;5074739;28;20489;-73
2021/05/24 07:03:49;;;;;;;1.38;0.03;;;12.10;99.90;;;;;;5074058;28;20483;-75
2021/05/24 07:06:14;;;;;;;0.00;0.00;;;12.10;99.90;;;;;;5056571;28;20029;-72
2021/05/24 07:08:40;;;;;;;2.00;0.00;;;12.10;99.90;;;;;;5074716;28;20046;-74
2021/05/24 07:11:05;;;;;;;0.70;0.00;;;12.10;99.90;;;;;;5073648;28;20028;-73
2021/05/24 07:13:31;;;;;;;0.25;0.00;;;12.10;99.90;;;;;;5074031;28;20036;-73
2021/05/24 07:15:57;;;;;;;4.88;0.03;;;12.00;99.90;;;;;;5073854;28;20025;-74
2021/05/24 07:18:22;;;;;;;2.22;0.05;;;11.90;99.90;;;;;;5074043;28;20070;-73
2021/05/24 07:20:48;;;;;;;2.17;0.30;;;11.90;99.90;;;;;;5055925;28;20032;-73
2021/05/24 07:23:14;;;;;;;1.50;0.00;;;12.00;99.90;;;;;;5074423;28;20025;-74
2021/05/24 07:25:41;;;;;;;0.32;0.00;;;12.10;99.90;;;;;;5073895;28;20029;-73
2021/05/24 07:28:06;;;;;;;5.40;0.13;;;12.10;99.90;;;;;;5074192;28;20103;-75
2021/05/24 07:30:33;;;;;;;0.08;0.00;;;12.10;99.90;;;;;;5073676;28;20132;-74
2021/05/24 07:32:58;;;;;;;0.08;0.00;;;12.10;99.90;;;;;;5073601;28;20025;-74
2021/05/24 07:35:24;;;;;;;1.23;0.00;;;12.10;99.90;;;;;;5055900;28;20503;-73
2021/05/24 07:37:53;;;;;;;0.00;0.00;;;12.10;99.90;;;;;;5073851;28;20021;-73
2021/05/24 07:40:18;;;;;;;0.00;0.00;;;12.10;99.90;;;;;;5073828;28;20046;-72
2021/05/24 07:42:45;;;;;;;3.40;0.00;;;12.10;99.90;;;;;;5073817;28;20145;-72
2021/05/24 07:45:10;;;;;;;2.08;0.32;;;12.00;99.90;;;;;;5073384;28;20021;-73
2021/05/24 07:47:36;;;;;;;0.00;0.00;;;12.00;99.90;;;;;;5073771;28;20029;-73
2021/05/24 07:50:04;;;;;;;0.20;0.00;;;12.00;99.90;;;;;;5055349;28;20024;-72
2021/05/24 07:52:29;;;;;;;1.45;0.00;;;12.10;99.90;;;;;;5073328;28;20032;-72
2021/05/24 07:54:55;;;;;;;0.00;0.00;;;12.10;99.90;;;;;;5073323;28;20400;-73
2021/05/24 07:57:20;;;;;;;0.80;0.10;;;12.00;99.90;;;;;;5073393;28;20100;-72
2021/05/24 07:59:46;;;;;;;0.68;0.30;;;12.00;99.90;;;;;;5073821;28;20028;-73
2021/05/24 08:02:12;;;;;;;1.95;0.00;;;12.10;99.90;;;;;;5073334;28;20363;-72
2021/05/24 08:04:37;;;;;;;0.43;0.00;;;12.10;99.90;;;;;;5073183;28;20477;-72
2021/05/24 08:07:03;;;;;;;1.50;0.00;;;12.20;99.90;;;;;;5073231;28;20481;-72
2021/05/24 08:09:30;;;;;;;1.27;0.00;;;12.20;99.90;;;;;;5073103;28;20036;-72
2021/05/24 08:11:55;;;;;;;0.32;0.00;;;12.30;99.90;;;;;;5055816;28;20510;-73
2021/05/24 08:14:22;;;;;;;0.17;0.00;;;12.30;99.90;;;;;;5073001;28;20013;-73
2021/05/24 08:16:48;;;;;;;0.47;0.00;;;12.40;99.90;;;;;;5073051;28;20044;-72
2021/05/24 08:19:15;;;;;;;0.73;0.10;;;12.30;99.90;;;;;;5055010;28;20017;-74
2021/05/24 08:21:49;;;;;;;0.60;0.00;;;12.30;99.90;;;;;;5055346;28;20021;-73
2021/05/24 08:24:16;;;;;;;0.55;0.00;;;12.20;99.90;;;;;;5077172;28;20024;-74
2021/05/24 08:26:42;;;;;;;0.35;0.00;;;12.30;99.90;;;;;;5078132;28;20028;-72
2021/05/24 08:29:08;;;;;;;0.75;0.00;;;12.30;99.90;;;;;;5059259;28;20427;-76
2021/05/24 08:31:35;;;;;;;0.82;0.00;;;12.30;99.90;;;;;;5076959;28;20020;-73
2021/05/24 08:34:01;;;;;;;1.48;0.00;;;12.30;99.90;;;;;;5058892;28;20115;-73
2021/05/24 08:36:27;;;;;;;0.40;0.00;;;12.30;99.90;;;;;;5059214;28;20044;-74
2021/05/24 08:38:53;;;;;;;0.60;0.00;;;12.30;99.90;;;;;;5077461;28;20024;-75
2021/05/24 08:41:19;;;;;;;0.08;0.00;;;12.20;99.90;;;;;;5076696;28;20027;-74
2021/05/24 08:43:45;;;;;;;0.43;0.00;;;12.20;99.90;;;;;;5076686;28;20055;-76
2021/05/24 08:46:11;;;;;;;2.75;0.10;;;12.20;99.90;;;;;;5059316;28;20460;-76
2021/05/24 08:48:38;;;;;;;2.28;0.00;;;12.20;99.90;;;;;;5058558;28;20539;-76
2021/05/24 08:51:08;;;;;;;0.15;0.00;;;12.20;99.90;;;;;;5076994;28;20020;-74
2021/05/24 08:53:37;;;;;;;1.10;0.00;;;12.30;99.90;;;;;;5077219;28;20093;-74
2021/05/24 08:56:04;;;;;;;0.10;0.00;;;12.40;99.90;;;;;;5076964;28;20482;-74
2021/05/24 08:58:29;;;;;;;4.05;0.10;;;12.50;99.90;;;;;;5076791;28;20024;-75
2021/05/24 09:00:55;;;;;;;0.22;0.00;;;12.50;99.90;;;;;;5076676;28;20036;-75
2021/05/24 09:03:23;;;;;;;1.95;0.00;;;12.50;99.90;;;;;;5077008;28;20020;-75
2021/05/24 09:05:53;;;;;;;1.67;0.00;;;12.50;99.90;;;;;;5059060;28;20045;-75
2021/05/24 09:08:19;;;;;;;0.45;0.00;;;12.50;99.90;;;;;;5042890;28;20021;-74
2021/05/24 09:10:47;;;;;;;0.80;0.00;;;12.50;99.90;;;;;;5075231;28;20031;-75
2021/05/24 09:13:18;;;;;;;1.27;0.00;;;12.50;99.90;;;;;;5077717;28;20021;-76
2021/05/24 09:15:47;;;;;;;0.03;0.00;;;12.60;99.90;;;;;;5076650;28;20032;-75
2021/05/24 09:18:15;;;;;;;2.83;0.30;;;12.60;99.90;;;;;;5072322;22;20482;-75
2021/05/24 09:20:46;;;;;;;0.38;0.10;;;12.60;99.90;;;;;;5090326;22;20055;-74
2021/05/24 09:28:42;;;;;;;0.20;0.00;;;12.70;99.90;;;;;;5072202;22;20049;-73
2021/05/24 09:31:09;;;;;;;2.13;0.15;;;12.60;99.90;;;;;;5073117;22;20445;-77
2021/05/24 09:33:39;;;;;;;0.50;0.00;;;12.70;99.90;;;;;;5091325;22;20049;-81
2021/05/24 09:36:05;;;;;;;0.60;0.00;;;12.80;99.90;;;;;;5091341;22;20048;-72
2021/05/24 09:38:45;;;;;;;0.60;0.00;;;12.90;99.90;;;;;;5076940;28;20431;-76
2021/05/24 09:41:13;;;;;;;2.22;0.00;;;12.90;99.90;;;;;;5090397;22;20048;-73
2021/05/24 09:43:40;;;;;;;1.50;0.10;;;13.00;99.90;;;;;;5059533;28;20016;-76
2021/05/24 09:46:20;;;;;;;0.47;0.22;;;12.90;99.90;;;;;;5059074;28;20468;-72
2021/05/24 09:48:51;;;;;;;1.38;0.00;;;12.80;99.90;;;;;;5094881;22;20052;-75
2021/05/24 09:51:20;;;;;;;0.60;0.20;;;12.60;99.90;;;;;;5077253;28;20028;-73
2021/05/24 09:54:05;;;;;;;0.45;0.00;;;12.90;99.90;;;;;;5075492;28;20086;-76
2021/05/24 09:56:37;;;;;;;0.22;0.00;;;12.70;99.90;;;;;;5076162;28;20078;-77
2021/05/24 09:59:06;;;;;;;1.00;0.00;;;12.70;99.90;;;;;;5076651;28;20531;-77
2021/05/24 10:01:38;;;;;;;;;;;12.80;99.90;;;;;;5059107;28;20107;-77
2021/05/24 10:04:06;;;;;;;0.10;0.00;;;12.90;99.90;;;;;;5059336;28;19998;-77
2021/05/24 10:06:33;;;;;;;0.45;0.10;;;12.90;99.90;;;;;;5076885;28;20059;-77
2021/05/24 10:09:00;;;;;;;1.10;0.10;;;12.80;99.90;;;;;;5076955;28;20020;-78
2021/05/24 10:11:36;;;;;;;1.10;0.00;;;12.70;99.90;;;;;;5057503;28;20482;-76
2021/05/24 10:14:03;;;;;;;0.35;0.00;;;12.60;99.90;;;;;;5075257;28;20489;-76
2021/05/24 10:16:35;;;;;;;0.30;0.10;;;12.60;99.90;;;;;;5075500;28;20027;-77
2021/05/24 10:19:01;;;;;;;3.20;0.00;;;12.70;99.90;;;;;;5049368;28;20056;-75
2021/05/24 10:21:27;;;;;;;0.00;0.00;;;12.80;99.90;;;;;;5075371;28;20507;-75
2021/05/24 10:23:54;;;;;;;0.30;0.10;;;12.90;99.90;;;;;;5057353;28;20103;-74
2021/05/24 10:26:21;;;;;;;0.15;0.00;;;12.90;99.90;;;;;;5074467;28;20029;-75
2021/05/24 10:28:48;;;;;;;1.27;0.00;;;13.00;99.90;;;;;;5056938;28;20040;-75
2021/05/24 10:31:25;;;;;;;0.52;0.00;;;13.00;99.90;;;;;;5057000;28;20032;-75
2021/05/24 10:33:52;;;;;;;0.00;0.00;;;13.00;99.90;;;;;;5075063;28;20074;-76
2021/05/24 10:36:30;;;;;;;1.20;0.22;;;13.00;99.90;;;;;;5075046;28;20377;-76
2021/05/24 10:39:08;;;;;;;1.75;0.00;;;13.00;99.90;;;;;;5075975;28;20019;-79
2021/05/24 10:41:59;;;;;;;1.65;0.05;;;13.00;99.90;;;;;;5078051;28;20024;-78
2021/05/24 10:44:34;;;;;;;2.50;0.00;;;12.90;99.90;;;;;;5078360;28;20107;-76
2021/05/24 10:47:39;;;;;;;0.00;0.00;;;12.80;99.90;;;;;;5074291;28;20111;-75
2021/05/24 10:50:07;;;;;;;0.10;0.00;;;12.80;99.90;;;;;;5044656;28;20040;-76
2021/05/24 10:52:38;;;;;;;0.70;0.00;;;12.80;99.90;;;;;;5058014;28;20021;-75
2021/05/24 10:55:29;;;;;;;1.20;0.00;;;12.90;99.90;;;;;;5056289;28;20386;-75
2021/05/24 10:58:03;;;;;;;1.85;0.00;;;13.00;99.90;;;;;;5089703;22;20139;-77
2021/05/24 11:00:53;;;;;;;0.00;0.00;;;13.20;99.90;;;;;;5058366;28;20024;-74
2021/05/24 11:03:20;;;;;;;0.55;0.00;;;15.20;99.90;;;;;;5057446;28;20032;-76
2021/05/24 11:05:48;;;;;;;0.82;0.20;;;13.50;99.90;;;;;;5057218;28;20032;-76
2021/05/24 11:08:29;;;;;;;0.30;0.00;;;13.80;99.90;;;;;;5075156;28;20138;-75
2021/05/24 11:13:33;;;;;;;0.38;0.00;;;14.20;99.90;;;;;;5034871;28;20054;-76
2021/05/24 11:16:17;;;;;;;0.30;0.00;;;14.20;99.90;;;;;;5018266;28;20467;-76
2021/05/24 11:18:43;;;;;;;0.10;0.00;;;16.00;99.90;;;;;;5019789;28;20478;-74
2021/05/24 11:21:18;;;;;;;0.20;0.00;;;13.80;99.90;;;;;;5017245;28;20029;-76
2021/05/24 11:26:41;;;;;;;0.50;0.00;;;14.20;99.90;;;;;;5035737;28;20056;-77
2021/05/24 11:29:09;;;;;;;0.15;0.00;;;14.10;99.90;;;;;;5035207;28;20047;-75
2021/05/24 11:31:36;;;;;;;0.20;0.00;;;14.00;99.90;;;;;;5034472;28;20021;-74
2021/05/24 11:34:06;;;;;;;0.10;0.00;;;14.00;99.90;;;;;;5016259;28;20042;-74
2021/05/24 11:36:35;;;;;;;1.52;0.03;;;14.10;99.90;;;;;;5016515;28;20064;-75
2021/05/24 11:39:06;;;;;;;0.10;0.10;;;14.40;99.90;;;;;;5036009;28;20022;-76
2021/05/24 11:41:34;;;;;;;2.17;0.00;;;14.40;99.90;;;;;;5034351;28;20049;-73
2021/05/24 11:44:02;;;;;;;0.45;0.00;;;14.40;99.90;;;;;;5016315;28;20025;-75
2021/05/24 11:46:48;;;;;;;0.10;0.00;;;14.50;99.90;;;;;;5015980;28;20505;-74
2021/05/24 11:49:16;;;;;;;0.17;0.00;;;14.50;99.90;;;;;;5033781;28;20032;-73
2021/05/24 11:51:42;;;;;;;0.10;0.00;;;14.50;99.90;;;;;;5016534;28;20025;-74
2021/05/24 11:54:20;;;;;;;1.23;0.00;;;14.60;99.90;;;;;;5034383;28;20037;-77
2021/05/24 11:56:51;;;;;;;0.00;0.00;;;14.60;99.90;;;;;;5033347;28;20033;-74
2021/05/24 11:59:20;;;;;;;0.00;0.00;;;14.60;99.90;;;;;;5016207;28;20021;-77
2021/05/24 12:01:48;;;;;;;3.45;0.28;;;14.40;99.90;;;;;;5033637;28;20521;-75
2021/05/24 12:04:22;;;;;;;3.60;0.00;;;14.20;99.90;;;;;;5033158;28;20099;-74
2021/05/24 12:07:00;;;;;;;0.10;0.00;;;14.30;99.90;;;;;;5033094;28;20025;-77
2021/05/24 12:09:32;;;;;;;;;;;14.30;99.90;;;;;;5033311;28;20396;-74
2021/05/24 12:11:59;;;;;;;0.00;0.00;;;14.40;99.90;;;;;;5015372;28;19921;-76
2021/05/24 12:14:25;;;;;;;0.70;0.00;;;14.40;99.90;;;;;;5024936;28;20034;-76
2021/05/24 12:16:52;;;;;;;0.38;0.00;;;14.50;99.90;;;;;;4996158;28;20022;-74
2021/05/24 12:19:27;;;;;;;0.52;0.00;;;14.50;99.90;;;;;;4996494;28;20033;-73
2021/05/24 12:21:58;;;;;;;1.42;0.00;;;14.60;99.90;;;;;;5013921;28;20026;-76
2021/05/24 12:24:24;;;;;;;0.10;0.10;;;14.80;99.90;;;;;;5090901;23;20072;-71
2021/05/24 12:26:53;;;;;;;0.00;0.00;;;14.80;99.90;;;;;;5078226;22;20079;-73
2021/05/24 12:29:29;;;;;;;0.25;0.00;;;14.90;99.90;;;;;;5097202;22;20132;-72
2021/05/24 12:31:58;;;;;;;0.20;0.00;;;15.10;99.90;;;;;;5078340;22;20071;-72
2021/05/24 12:34:37;;;;;;;0.00;0.00;;;15.30;99.90;;;;;;5075298;28;20077;-72
2021/05/24 12:37:06;;;;;;;0.05;0.00;;;15.40;99.90;;;;;;5075829;28;20389;-72
2021/05/24 12:39:35;;;;;;;0.00;0.00;;;15.70;99.90;;;;;;5076661;28;20021;-73
2021/05/24 12:42:02;;;;;;;0.32;0.20;;;15.90;99.90;;;;;;5137350;22;20037;-72
2021/05/24 12:44:28;;;;;;;0.45;0.00;;;16.00;99.90;;;;;;5080971;28;20082;-75
2021/05/24 12:46:57;;;;;;;1.65;0.00;;;16.10;99.90;;;;;;5139642;22;20058;-72
2021/05/24 12:49:40;;;;;;;1.65;0.10;;;16.30;99.90;;;;;;5073919;28;20029;-73
2021/05/24 12:54:40;;;;;;;0.93;0.00;;;16.60;99.90;;;;;;5047729;28;20062;-74
2021/05/24 12:57:07;;;;;;;0.00;0.00;;;16.70;99.90;;;;;;5076006;22;20072;-75
2021/05/24 12:59:43;;;;;;;0.45;0.10;;;16.80;99.00;;;;;;5056440;28;20017;-75
2021/05/24 13:02:09;;;;;;;0.35;0.00;;;16.80;96.90;;;;;;5056533;28;20023;-72
2021/05/24 13:04:36;;;;;;;1.17;0.00;;;16.90;98.40;;;;;;5058312;28;20111;-73
2021/05/24 13:07:02;;;;;;;0.13;0.08;;;16.80;95.20;;;;;;5072914;28;20031;-71
2021/05/24 13:09:30;;;;;;;0.10;0.00;;;16.90;94.30;;;;;;5073853;28;20028;-74